This is the latest recevied weather packets stored in our database for station/object N6GPM. If no packets are shown the sender has not sent any weather packets the latest 10 day(s).
| Time | Temp. | Humidity | Pressure | Rain* | Wind** | Luminosity | Snow |
|---|---|---|---|---|---|---|---|
| 1777225909 | 13.33° C | 75% | 1017.5 hPa | 0 mm | - | 663 W/m² | - |
| 1777225604 | 12.78° C | 75% | 1017.5 hPa | 0 mm | - | 838 W/m² | - |
| 1777225302 | 12.78° C | 75% | 1017.3 hPa | 0 mm | - | 319 W/m² | - |
| 1777224998 | 12.78° C | 75% | 1017.3 hPa | 0 mm | - | 216 W/m² | - |
| 1777224696 | 12.78° C | 76% | 1017 hPa | 0 mm | - | 273 W/m² | - |
| 1777224390 | 12.78° C | 76% | 1017.2 hPa | 0 mm | - | 287 W/m² | - |
| 1777224087 | 12.78° C | 74% | 1017.3 hPa | 0 mm | - | 323 W/m² | - |
| 1777223783 | 12.78° C | 74% | 1017 hPa | 0 mm | - | 255 W/m² | - |
| 1777223474 | 12.78° C | 75% | 1016.8 hPa | 0 mm | - | 677 W/m² | - |
| 1777223172 | 12.78° C | 75% | 1017 hPa | 0 mm | - | 964 W/m² | - |
| 1777222869 | 12.22° C | 77% | 1016.6 hPa | 0 mm | - | 921 W/m² | - |
| 1777222566 | 12.22° C | 78% | 1016.6 hPa | 0 mm | - | 255 W/m² | - |
| 1777222263 | 12.22° C | 78% | 1016.7 hPa | 0 mm | - | 309 W/m² | - |
| 1777221961 | 12.22° C | 77% | 1016.6 hPa | 0 mm | - | 917 W/m² | - |
| 1777221656 | 11.67° C | 77% | 1016.4 hPa | 0 mm | - | 840 W/m² | - |
| 1777221353 | 11.67° C | 78% | 1016.4 hPa | 0 mm | - | 834 W/m² | - |
| 1777221051 | 12.22° C | 78% | 1016.6 hPa | 0 mm | - | 847 W/m² | - |
| 1777220751 | 11.67° C | 79% | 1016.4 hPa | 0 mm | - | 633 W/m² | - |
| 1777220447 | 11.67° C | 80% | 1016.5 hPa | 0 mm | - | 238 W/m² | - |
| 1777220147 | 11.67° C | 81% | 1016.4 hPa | 0 mm | - | 123 W/m² | - |
| 1777219844 | 11.67° C | 81% | 1016.3 hPa | 0 mm | - | 258 W/m² | - |
| 1777219542 | 11.67° C | 82% | 1016.5 hPa | 0 mm | - | 169 W/m² | - |
| 1777219238 | 11.11° C | 83% | 1016.2 hPa | 0 mm | - | 142 W/m² | - |
| 1777218933 | 11.11° C | 84% | 1016.2 hPa | 0 mm | - | 178 W/m² | - |
| 1777218630 | 10.56° C | 84% | 1016.1 hPa | 0 mm | - | 223 W/m² | - |
* Rain latest hour (hover to see other rain measurements)
** Current wind speed in m/s (hover to see current wind gust speed)